Latest Weather Observations for Bankstown

IDN60801

Issued at 6:35 pm EST Tuesday 29 July 2014 (issued every 30 minutes, with the page automatically refreshed every 10 minutes)

About weather observations | Map of weather stations | Latest weather observations for NSW | Other Formats
Station Details ID: 066137 Name: BANKSTOWN AIRPORT AWS Lat: -33.92 Lon: 150.99 Height: 6.5 m
Data from the previous 72 hours. | See also: Recent months at Bankstown
Date/Time
EST
Temp
°C
App
Temp
°C
Dew
Point
Rel
Hum
%
Delta-T
°C
Wind Press
QNH
hPa
Press
MSL
hPa
Rain
since 9 am
mm
Dir
 
Spd
km/h
Gust
km/h
Spd
kts
Gust
kts
29/06:30pm 18.2 13.0 0.4 30 7.8 NW 17 22 9 12 1015.5 - 0.0
29/06:00pm 18.4 14.0 0.1 29 8.0 NNW 13 22 7 12 1015.2 1015.2 0.0
29/05:30pm 19.6 14.3 -0.9 25 8.9 NW 17 24 9 13 1014.7 - 0.0
29/05:00pm 20.6 14.6 -1.2 23 9.4 WNW 20 33 11 18 1014.2 1014.2 0.0
29/04:30pm 21.8 15.4 -1.5 21 10.1 WNW 22 33 12 18 1013.9 - 0.0
29/04:00pm 22.6 16.3 -0.8 21 10.4 WNW 22 32 12 17 1013.8 1013.8 0.0
29/03:30pm 22.9 15.9 -0.6 21 10.5 NW 26 37 14 20 1013.2 - 0.0
29/03:00pm 23.1 16.5 -0.4 21 10.6 NW 24 35 13 19 1012.5 1012.5 0.0
29/02:30pm 23.2 17.4 -0.3 21 10.6 WNW 20 32 11 17 1013.1 - 0.0
29/02:00pm 22.2 16.3 1.8 26 9.5 NNW 22 30 12 16 1013.2 1013.2 0.0
29/01:30pm 21.6 15.7 1.8 27 9.2 NNW 22 32 12 17 1013.6 - 0.0
29/01:00pm 20.8 14.9 1.6 28 8.8 NNW 22 32 12 17 1014.6 1014.6 0.0
29/12:30pm 20.1 12.2 1.0 28 8.6 NNW 32 44 17 24 1014.5 - 0.0
29/12:00pm 19.1 12.3 1.1 30 8.1 NNW 26 39 14 21 1015.3 1015.3 0.0
29/11:30am 19.4 12.4 1.9 31 8.0 NNW 28 41 15 22 1015.7 - 0.0
29/11:00am 18.7 13.6 3.3 36 7.2 NNW 19 32 10 17 1016.7 1016.7 0.0
29/10:30am 16.9 11.1 2.5 38 6.5 N 22 28 12 15 1017.1 - 0.0
29/10:00am 16.5 11.2 2.9 40 6.2 N 20 28 11 15 1017.6 1017.6 0.0
29/09:30am 15.7 10.6 3.2 43 5.7 N 19 30 10 16 1017.9 - 0.0
29/09:00am 14.9 11.6 4.3 49 4.9 NNW 11 20 6 11 1018.1 1018.1 0.0
29/08:30am 13.5 10.4 3.8 52 4.4 NNW 9 13 5 7 1018.2 - 0.0
29/08:00am 12.8 9.1 4.3 56 3.9 NNW 13 20 7 11 1018.0 1018.0 0.0
29/07:30am 11.7 8.3 4.0 59 3.4 NW 11 15 6 8 1018.2 - 0.0
29/07:00am 11.6 8.6 4.1 60 3.4 NW 9 15 5 8 1018.1 1018.1 0.0
29/06:30am 11.5 8.4 3.8 59 3.4 WNW 9 13 5 7 1017.9 - 0.0
29/06:00am 12.1 7.5 3.9 57 3.7 NNW 17 24 9 13 1017.6 1017.6 0.0
29/05:30am 12.1 8.4 4.3 59 3.5 NW 13 20 7 11 1017.5 - 0.0
29/05:00am 11.2 7.8 4.2 62 3.1 NW 11 15 6 8 1017.4 1017.4 0.0
29/04:30am 10.4 7.7 3.9 64 2.9 NNW 7 11 4 6 1017.4 - 0.0
29/04:00am 11.6 8.6 4.1 60 3.4 NNW 9 13 5 7 1017.4 1017.4 0.0
29/03:30am 12.4 7.8 3.9 56 3.8 NW 17 22 9 12 1017.4 - 0.0
29/03:00am 12.9 8.0 4.1 55 4.0 NNW 19 24 10 13 1017.2 1017.2 0.0
29/02:30am 12.8 8.6 4.0 55 4.0 NNW 15 20 8 11 1017.4 - 0.0
29/02:00am 12.5 7.6 4.0 56 3.8 NNW 19 26 10 14 1017.5 1017.5 0.0
29/01:30am 12.5 7.6 4.2 57 3.8 NW 19 22 10 12 1017.6 - 0.0
29/01:00am 12.6 8.1 4.3 57 3.8 NNW 17 20 9 11 1017.9 1017.9 0.0
29/12:30am 12.5 8.1 4.5 58 3.6 NNW 17 22 9 12 1017.9 - 0.0
29/12:00am 12.1 8.5 5.0 62 3.3 NNW 13 17 7 9 1018.3 1018.3 0.0
 
Date/Time
EST
Temp
°C
App
Temp
°C
Dew
Point
Rel
Hum
%
Delta-T
°C
Wind Press
QNH
hPa
Press
MSL
hPa
Rain
since 9 am
mm
Dir
 
Spd
km/h
Gust
km/h
Spd
kts
Gust
kts
28/11:30pm 12.5 9.8 5.4 62 3.3 NNW 9 11 5 6 1018.7 - 0.0
28/11:00pm 9.9 7.5 6.8 81 1.5 NNW 9 11 5 6 1019.0 1019.0 0.0
28/10:30pm 10.2 9.6 7.3 82 1.4 CALM 0 0 0 0 1019.1 - 0.0
28/10:00pm 9.7 8.9 6.4 80 1.5 CALM 0 0 0 0 1019.4 1019.4 0.0
28/09:30pm 10.0 9.2 6.3 78 1.7 CALM 0 0 0 0 1019.3 - 0.0
28/09:00pm 9.9 9.0 5.9 76 1.8 CALM 0 0 0 0 1019.3 1019.3 0.0
28/08:30pm 10.7 9.9 6.3 74 2.1 CALM 0 0 0 0 1019.2 - 0.0
28/08:00pm 11.2 10.3 6.1 71 2.4 CALM 0 0 0 0 1019.3 1019.3 0.0
28/07:30pm 11.6 10.7 5.9 68 2.7 CALM 0 0 0 0 1019.1 - 0.0
28/07:00pm 12.6 11.6 5.8 63 3.2 CALM 0 4 0 2 1018.9 1018.9 0.0
28/06:30pm 12.3 10.9 5.7 64 3.1 N 2 9 1 5 1019.0 - 0.0
28/06:00pm 13.4 11.5 5.1 57 3.8 N 4 7 2 4 1018.6 1018.6 0.0
28/05:30pm 15.1 12.6 4.8 50 4.8 N 7 7 4 4 1018.5 - 0.0
28/05:00pm 16.0 13.4 4.1 45 5.5 N 7 11 4 6 1018.2 1018.2 0.0
28/04:30pm 16.4 13.7 3.8 43 5.8 NW 7 9 4 5 1017.9 - 0.0
28/04:00pm 17.2 13.3 3.5 40 6.3 NW 13 17 7 9 1017.9 1017.9 0.0
28/03:30pm 17.8 13.1 3.3 38 6.7 NNW 17 24 9 13 1018.0 - 0.0
28/03:00pm 18.1 14.3 3.9 39 6.7 NW 13 19 7 10 1018.0 1018.0 0.0
28/02:30pm 17.7 13.5 3.9 40 6.5 NW 15 19 8 10 1018.1 - 0.0
28/02:00pm 17.8 12.8 3.7 39 6.6 W 19 26 10 14 1018.1 1018.1 0.0
28/01:30pm 17.6 12.5 2.8 37 6.8 W 19 28 10 15 1018.2 - 0.0
28/01:00pm 17.9 10.6 2.6 36 7.0 WSW 30 41 16 22 1018.7 1018.7 0.0
28/12:30pm 17.4 10.5 2.6 37 6.7 WSW 28 46 15 25 1019.5 - 0.0
28/12:29pm 17.3 10.3 2.1 36 6.8 WSW 28 46 15 25 1019.6 - 0.0
28/12:00pm 17.5 12.2 3.0 38 6.6 W 20 30 11 16 1019.9 1019.9 0.0
28/11:30am 17.2 12.1 3.1 39 6.5 W 19 30 10 16 1020.2 - 0.0
28/11:00am 16.8 11.5 3.1 40 6.3 W 20 30 11 16 1020.8 1020.8 0.0
28/10:30am 16.4 11.6 2.8 40 6.2 W 17 22 9 12 1021.1 - 0.0
28/10:00am 15.1 11.5 4.8 50 4.8 NW 13 17 7 9 1021.1 1021.1 0.0
28/09:30am 13.1 9.7 5.8 61 3.4 NW 13 19 7 10 1021.1 - 0.0
28/09:00am 12.0 9.0 5.9 66 2.8 NW 11 15 6 8 1021.4 1021.4 0.0
28/08:30am 9.8 6.4 6.0 77 1.7 NW 13 17 7 9 1021.2 - 0.0
28/08:00am 8.6 6.2 5.4 80 1.4 NNW 7 11 4 6 1021.6 1021.6 0.0
28/07:30am 7.1 4.2 4.6 84 1.1 N 9 11 5 6 1021.7 - 0.0
28/07:00am 7.0 5.7 4.3 83 1.2 CALM 0 0 0 0 1021.8 1021.8 0.0
28/06:30am 6.6 4.1 3.6 81 1.3 NW 6 7 3 4 1021.6 - 0.0
28/06:00am 7.7 4.0 4.5 80 1.4 NW 13 15 7 8 1021.0 1021.0 0.0
28/05:30am 8.4 4.7 4.2 75 1.8 NNW 13 17 7 9 1020.7 - 0.0
28/05:00am 8.5 4.8 4.7 77 1.7 N 13 15 7 8 1020.5 1020.5 0.0
28/04:30am 6.6 3.6 3.9 83 1.2 N 9 11 5 6 1020.9 - 0.0
28/04:00am 7.1 4.1 4.2 82 1.2 N 9 9 5 5 1020.8 1020.8 0.0
28/03:30am 6.2 4.7 3.2 81 1.3 CALM 0 0 0 0 1020.8 - 0.0
28/03:00am 6.7 4.6 3.9 82 1.2 W 4 7 2 4 1021.3 1021.3 0.0
28/02:30am 6.9 5.2 4.2 83 1.2 WNW 2 6 1 3 1021.9 - 0.0
28/02:00am 6.4 3.7 3.7 83 1.1 NW 7 9 4 5 1021.8 1021.8 0.0
28/01:30am 6.9 4.5 4.2 83 1.2 NW 6 7 3 4 1021.7 - 0.0
28/01:00am 7.0 5.2 5.2 88 0.8 WNW 4 7 2 4 1022.2 1022.2 0.0
28/12:30am 6.2 5.0 4.5 89 0.7 CALM 0 0 0 0 1022.2 - 0.0
28/12:00am 5.7 3.6 3.9 88 0.8 S 4 7 2 4 1021.7 1021.7 0.0
 
Date/Time
EST
Temp
°C
App
Temp
°C
Dew
Point
Rel
Hum
%
Delta-T
°C
Wind Press
QNH
hPa
Press
MSL
hPa
Rain
since 9 am
mm
Dir
 
Spd
km/h
Gust
km/h
Spd
kts
Gust
kts
27/11:30pm 6.4 4.1 4.7 89 0.7 SSE 6 9 3 5 1021.8 - 0.0
27/11:00pm 7.1 6.1 5.4 89 0.8 CALM 0 0 0 0 1022.2 1022.2 0.0
27/10:30pm 6.6 5.0 4.6 87 0.9 S 2 6 1 3 1022.4 - 0.0
27/10:00pm 7.7 6.7 5.7 87 0.9 CALM 0 0 0 0 1022.6 1022.6 0.0
27/09:30pm 7.8 6.7 4.9 82 1.3 CALM 0 0 0 0 1022.9 - 0.0
27/09:00pm 8.5 7.4 5.3 80 1.4 CALM 0 0 0 0 1023.2 1023.2 0.0
27/08:30pm 9.0 8.0 5.4 78 1.6 CALM 0 0 0 0 1023.5 - 0.0
27/08:00pm 9.3 7.0 4.7 73 2.0 SE 6 9 3 5 1023.5 1023.5 0.0
27/07:30pm 11.2 10.1 6.9 75 2.0 SE 2 9 1 5 1023.5 - 0.0
27/07:00pm 10.1 8.3 5.5 73 2.1 SSE 4 11 2 6 1023.4 1023.4 0.0
27/06:30pm 12.6 11.7 6.0 64 3.1 CALM 0 0 0 0 1022.8 - 0.0
27/06:00pm 12.2 10.8 3.7 56 3.8 CALM 0 0 0 0 1022.4 1022.4 0.0
27/05:30pm 15.5 13.0 4.8 49 5.0 E 7 9 4 5 1022.1 - 0.0
27/05:00pm 16.4 12.7 4.4 45 5.6 ESE 13 17 7 9 1021.5 1021.5 0.0
27/04:30pm 17.2 12.8 4.5 43 6.0 ESE 17 20 9 11 1021.4 - 0.0
27/04:00pm 18.9 15.4 3.5 36 7.2 SW 11 20 6 11 1021.0 1021.0 0.0
27/03:30pm 19.8 15.9 3.5 34 7.7 SW 13 17 7 9 1021.2 - 0.0
27/03:00pm 19.8 16.0 3.9 35 7.5 SW 13 17 7 9 1021.3 1021.3 0.0
27/02:30pm 19.8 15.8 3.1 33 7.8 W 13 20 7 11 1021.4 - 0.0
27/02:00pm 19.8 15.8 3.1 33 7.8 W 13 20 7 11 1021.6 1021.6 0.0
27/01:30pm 19.5 15.6 3.2 34 7.6 WNW 13 20 7 11 1021.7 - 0.0
27/01:00pm 19.1 16.0 3.7 36 7.2 S 9 15 5 8 1021.9 1021.9 0.0
27/12:30pm 18.9 14.6 3.5 36 7.2 SW 15 26 8 14 1022.5 - 0.0
27/12:00pm 18.3 14.4 3.4 37 6.9 WSW 13 26 7 14 1023.1 1023.1 0.0
27/11:30am 17.8 14.2 5.1 43 6.1 SW 13 19 7 10 1023.9 - 0.0
27/11:00am 17.0 13.0 5.0 45 5.7 WSW 15 20 8 11 1024.3 1024.3 0.0
27/10:30am 15.9 11.6 5.2 49 5.1 SW 17 20 9 11 1024.8 - 0.0
27/10:00am 14.7 11.2 5.5 54 4.3 WSW 13 20 7 11 1025.2 1025.2 0.0
27/09:30am 13.5 10.5 6.1 61 3.5 WSW 11 19 6 10 1025.0 - 0.0
27/09:00am 12.1 9.9 6.4 68 2.7 WNW 7 9 4 5 1024.9 1024.9 1.0
27/08:30am 10.5 7.9 6.1 74 2.0 N 9 11 5 6 1024.8 - 1.0
27/08:00am 8.7 6.4 5.8 82 1.3 WNW 7 9 4 5 1024.5 1024.5 1.0
27/07:30am 8.0 5.3 5.8 86 1.0 NNW 9 11 5 6 1024.4 - 1.0
27/07:00am 6.9 3.8 5.4 90 0.7 N 11 13 6 7 1024.2 1024.2 1.0
27/06:30am 4.6 1.4 2.9 89 0.7 WNW 9 11 5 6 1023.9 - 1.0
27/06:00am 5.4 2.6 3.3 86 0.9 NNW 7 9 4 5 1023.4 1023.4 1.0
27/05:30am 7.4 4.9 5.0 85 1.1 NW 7 9 4 5 1023.0 - 1.0
27/05:00am 5.5 2.8 3.5 87 0.8 WNW 7 9 4 5 1022.9 1022.9 1.0
27/04:30am 5.3 2.6 2.7 83 1.1 N 6 9 3 5 1023.0 - 1.0
27/04:00am 7.6 5.3 4.7 82 1.3 WNW 6 7 3 4 1022.9 1022.9 1.0
27/03:30am 7.4 5.0 5.2 86 1.0 W 7 9 4 5 1022.9 - 1.0
27/03:00am 6.4 3.8 4.2 86 0.9 WNW 7 9 4 5 1023.2 1023.2 1.0
27/02:30am 7.5 5.7 5.3 86 1.0 W 4 7 2 4 1023.3 - 1.0
27/02:00am 6.8 5.4 5.3 90 0.7 NE 2 7 1 4 1023.2 1023.2 1.0
27/01:30am 5.2 3.0 3.5 89 0.7 NE 4 7 2 4 1023.3 - 1.0
27/01:00am 6.7 5.6 5.2 90 0.7 CALM 0 0 0 0 1023.1 1023.1 1.0
27/12:30am 5.8 4.5 4.1 89 0.7 CALM 0 0 0 0 1023.1 - 1.0
27/12:00am 6.1 4.5 4.3 88 0.8 NNW 2 7 1 4 1023.4 1023.4 1.0
 
Date/Time
EST
Temp
°C
App
Temp
°C
Dew
Point
Rel
Hum
%
Delta-T
°C
Wind Press
QNH
hPa
Press
MSL
hPa
Rain
since 9 am
mm
Dir
 
Spd
km/h
Gust
km/h
Spd
kts
Gust
kts
26/11:30pm 7.2 5.1 5.7 90 0.7 NNW 6 7 3 4 1023.5 - 1.0
26/11:00pm 7.0 5.6 5.3 89 0.7 NNW 2 6 1 3 1023.5 1023.5 1.0
26/10:30pm 7.0 5.9 5.3 89 0.8 CALM 0 0 0 0 1023.4 - 1.0
26/10:00pm 7.7 6.4 6.0 89 0.8 NNW 2 6 1 3 1023.3 1023.3 1.0
26/09:30pm 7.4 6.3 5.2 86 1.0 CALM 0 0 0 0 1023.4 - 1.0
26/09:00pm 8.2 7.3 6.0 86 1.0 CALM 0 0 0 0 1023.4 1023.4 1.0
26/08:30pm 8.4 7.4 5.5 82 1.3 CALM 0 0 0 0 1023.3 - 1.0
26/08:00pm 10.4 9.6 6.7 78 1.7 CALM 0 0 0 0 1023.1 1023.1 1.0
26/07:30pm 10.9 10.3 7.6 80 1.6 CALM 0 0 0 0 1022.8 - 1.0
26/07:00pm 10.8 9.5 5.8 71 2.3 NW 2 7 1 4 1022.6 1022.6 1.0

Other Formats:

Comma delimited format used in spreadsheet applications
http://www.bom.gov.au/fwo/IDN60801/IDN60801.94765.axf

JavaScript Object Notation format (JSON) in row-major order
http://www.bom.gov.au/fwo/IDN60801/IDN60801.94765.json